createdAt,value
2023-03-13T00:01:26.776Z,97774.40
2023-03-13T00:03:55.685Z,97767.40
2023-03-13T00:06:24.414Z,97764.80
2023-03-13T00:08:52.595Z,97772.60
2023-03-13T00:11:20.784Z,97777.60
2023-03-13T00:13:48.853Z,97780.80
2023-03-13T00:16:17.045Z,97776.80
2023-03-13T00:18:46.678Z,97786.40
2023-03-13T00:21:14.741Z,97786.00
2023-03-13T00:23:42.737Z,97792.40
2023-03-13T00:26:18.870Z,97803.60
2023-03-13T00:28:46.995Z,97818.60
2023-03-13T00:31:17.087Z,97823.60
2023-03-13T00:33:46.839Z,97822.80
2023-03-13T00:36:18.731Z,97814.40
2023-03-13T00:38:46.793Z,97805.20
2023-03-13T00:41:19.813Z,97811.60
2023-03-13T00:43:48.914Z,97810.40
2023-03-13T00:46:18.554Z,97796.00
2023-03-13T00:48:47.176Z,97796.40
2023-03-13T00:51:15.790Z,97794.80
2023-03-13T00:53:43.867Z,97801.80
2023-03-13T00:56:21.565Z,97804.00
2023-03-13T00:58:50.356Z,97801.40
2023-03-13T01:01:21.295Z,97800.20
2023-03-13T01:03:53.894Z,97794.80
2023-03-13T01:06:24.086Z,97789.00
2023-03-13T01:08:52.157Z,97788.00
2023-03-13T01:11:24.920Z,97792.20
2023-03-13T01:13:57.048Z,97800.40
2023-03-13T01:16:28.325Z,97800.20
2023-03-13T01:18:58.931Z,97792.00
2023-03-13T01:21:27.203Z,97788.00
2023-03-13T01:23:55.605Z,97780.20
2023-03-13T01:26:24.387Z,97782.00
2023-03-13T01:28:52.516Z,97784.60
2023-03-13T01:31:27.918Z,97788.80
2023-03-13T01:33:57.910Z,97794.00
2023-03-13T01:36:26.434Z,97784.60
2023-03-13T01:38:56.088Z,97788.00
2023-03-13T01:41:25.602Z,97791.20
2023-03-13T01:43:55.633Z,97801.60
2023-03-13T01:46:28.366Z,97802.20
2023-03-13T01:49:08.185Z,97810.00
2023-03-13T01:51:42.618Z,97813.20
2023-03-13T01:54:22.796Z,97809.20
2023-03-13T01:57:00.468Z,97808.80
2023-03-13T01:59:48.677Z,97804.20
2023-03-13T02:02:16.793Z,97799.40
2023-03-13T02:04:50.766Z,97806.60
2023-03-13T02:07:22.364Z,97813.00
2023-03-13T02:09:52.213Z,97813.00
2023-03-13T02:12:31.602Z,97823.60
2023-03-13T02:15:00.832Z,97831.40
2023-03-13T02:17:29.090Z,97831.80
2023-03-13T02:19:57.173Z,97828.60
2023-03-13T02:22:25.234Z,97831.20
2023-03-13T02:25:23.983Z,97829.00
2023-03-13T02:28:08.689Z,97830.60
2023-03-13T02:30:38.097Z,97834.80
2023-03-13T02:33:06.110Z,97830.80
2023-03-13T02:35:35.956Z,97828.60
2023-03-13T02:38:06.772Z,97825.40
2023-03-13T02:40:38.051Z,97827.80
2023-03-13T02:43:09.435Z,97825.80
2023-03-13T02:45:37.463Z,97823.80
2023-03-13T02:48:06.054Z,97820.60
2023-03-13T02:50:34.371Z,97814.00
2023-03-13T02:53:04.818Z,97817.40
2023-03-13T02:55:40.524Z,97809.20
2023-03-13T02:58:08.770Z,97816.60
2023-03-13T03:00:37.637Z,97819.40
2023-03-13T03:03:05.671Z,97823.80
2023-03-13T03:05:33.592Z,97826.40
2023-03-13T03:08:01.607Z,97826.40
2023-03-13T03:10:29.741Z,97831.40
2023-03-13T03:12:58.176Z,97829.40
2023-03-13T03:15:26.284Z,97825.80
2023-03-13T03:17:54.638Z,97825.40
2023-03-13T03:20:22.841Z,97820.60
2023-03-13T03:22:51.726Z,97824.20
2023-03-13T03:25:21.544Z,97826.00
2023-03-13T03:27:49.910Z,97829.60
2023-03-13T03:30:18.581Z,97837.80
2023-03-13T03:32:46.750Z,97838.20
2023-03-13T03:35:14.794Z,97840.60
2023-03-13T03:37:43.096Z,97844.80
2023-03-13T03:40:12.047Z,97850.60
2023-03-13T03:42:40.049Z,97849.80
2023-03-13T03:45:08.804Z,97849.20
2023-03-13T03:47:36.995Z,97842.80
2023-03-13T03:50:05.431Z,97843.60
2023-03-13T03:52:37.812Z,97832.20
2023-03-13T03:55:06.162Z,97838.40
2023-03-13T03:57:34.178Z,97848.00
2023-03-13T04:00:02.681Z,97850.60
2023-03-13T04:02:40.773Z,97859.00
2023-03-13T04:05:09.709Z,97862.80
2023-03-13T04:07:40.444Z,97861.80
2023-03-13T04:10:09.145Z,97867.00
2023-03-13T04:12:43.126Z,97862.00
2023-03-13T04:15:11.526Z,97864.40
2023-03-13T04:17:39.646Z,97870.00
2023-03-13T04:20:09.782Z,97858.40
2023-03-13T04:22:37.792Z,97859.40
2023-03-13T04:25:06.718Z,97863.60
2023-03-13T04:27:34.896Z,97857.00
2023-03-13T04:30:04.573Z,97847.20
2023-03-13T04:32:51.517Z,97852.40
2023-03-13T04:35:40.052Z,97856.40
2023-03-13T04:38:28.424Z,97851.80
2023-03-13T04:41:07.996Z,97847.40
2023-03-13T04:43:48.955Z,97848.20
2023-03-13T04:46:34.250Z,97851.60
2023-03-13T04:49:35.219Z,97848.60
2023-03-13T04:52:21.147Z,97862.60
2023-03-13T04:55:18.121Z,97871.60
2023-03-13T04:58:10.633Z,97865.80
2023-03-13T05:00:44.969Z,97872.20
2023-03-13T05:03:36.193Z,97878.80
2023-03-13T05:06:30.376Z,97879.60
2023-03-13T05:09:15.277Z,97880.20
2023-03-13T05:12:09.359Z,97890.20
2023-03-13T05:15:03.626Z,97896.00
2023-03-13T05:17:50.127Z,97896.60
2023-03-13T05:20:33.486Z,97913.40
2023-03-13T05:23:10.604Z,97911.60
2023-03-13T05:25:57.482Z,97916.20
2023-03-13T05:28:40.547Z,97913.20
2023-03-13T05:31:34.923Z,97906.80
2023-03-13T05:34:23.998Z,97908.80
2023-03-13T05:37:10.887Z,97889.00
2023-03-13T05:39:54.008Z,97888.00
2023-03-13T05:42:31.523Z,97903.60
2023-03-13T05:45:28.727Z,97900.00
2023-03-13T05:48:02.390Z,97896.80
2023-03-13T05:50:59.626Z,97912.00
2023-03-13T05:53:47.924Z,97909.80
2023-03-13T05:56:34.457Z,97916.60
2023-03-13T05:59:23.320Z,97916.00
2023-03-13T06:01:58.857Z,97927.20
2023-03-13T06:04:31.522Z,97923.80
2023-03-13T06:06:59.746Z,97919.60
2023-03-13T06:09:28.507Z,97920.60
2023-03-13T06:11:57.992Z,97922.00
2023-03-13T06:14:26.295Z,97921.60
2023-03-13T06:17:17.693Z,97924.40
2023-03-13T06:19:46.922Z,97925.40
2023-03-13T06:22:16.445Z,97929.00
2023-03-13T06:24:45.124Z,97918.20
2023-03-13T06:27:13.153Z,97919.40
2023-03-13T06:29:41.146Z,97924.60
2023-03-13T06:32:09.321Z,97914.40
2023-03-13T06:34:37.616Z,97921.00
2023-03-13T06:37:05.745Z,97916.00
2023-03-13T06:39:34.119Z,97916.00
2023-03-13T06:42:02.136Z,97913.40
2023-03-13T06:44:30.127Z,97907.60
2023-03-13T06:46:58.357Z,97913.60
2023-03-13T06:49:26.497Z,97915.80
2023-03-13T06:51:56.966Z,97924.00
2023-03-13T06:54:24.960Z,97922.80
2023-03-13T06:56:52.953Z,97931.20
2023-03-13T06:59:21.063Z,97938.40
2023-03-13T07:01:49.119Z,97931.20
2023-03-13T07:04:17.501Z,97925.00
2023-03-13T07:06:45.517Z,97921.20
2023-03-13T07:09:13.780Z,97918.60
2023-03-13T07:11:41.862Z,97916.40
2023-03-13T07:14:17.063Z,97913.60
2023-03-13T07:16:46.170Z,97900.60
2023-03-13T07:19:15.366Z,97908.20
2023-03-13T07:21:44.178Z,97909.20
2023-03-13T07:24:12.760Z,97909.60
2023-03-13T07:26:48.552Z,97903.80
2023-03-13T07:29:22.539Z,97917.80
2023-03-13T07:31:50.815Z,97915.40
2023-03-13T07:34:18.999Z,97910.00
2023-03-13T07:36:47.208Z,97917.40
2023-03-13T07:39:15.298Z,97921.00
2023-03-13T07:41:43.331Z,97926.20
2023-03-13T07:44:16.274Z,97929.80
2023-03-13T07:46:44.392Z,97926.40
2023-03-13T07:49:12.505Z,97922.00
2023-03-13T07:51:43.926Z,97922.60
2023-03-13T07:54:12.536Z,97927.60
2023-03-13T07:56:40.654Z,97920.60
2023-03-13T07:59:09.408Z,97920.60
2023-03-13T08:01:37.599Z,97921.60
2023-03-13T08:04:05.875Z,97929.00
2023-03-13T08:06:35.698Z,97927.60
2023-03-13T08:09:06.713Z,97913.60
2023-03-13T08:11:34.828Z,97917.20
2023-03-13T08:14:02.913Z,97916.20
2023-03-13T08:16:34.199Z,97911.00
2023-03-13T08:19:05.138Z,97911.80
2023-03-13T08:21:37.113Z,97907.20
2023-03-13T08:24:08.627Z,97904.60
2023-03-13T08:26:37.639Z,97905.60
2023-03-13T08:29:10.432Z,97913.60
2023-03-13T08:31:48.511Z,97916.40
2023-03-13T08:34:16.682Z,97911.20
2023-03-13T08:36:45.025Z,97899.60
2023-03-13T08:39:14.695Z,97904.40
2023-03-13T08:41:42.902Z,97896.20
2023-03-13T08:44:12.576Z,97903.20
2023-03-13T08:46:41.177Z,97903.20
2023-03-13T08:49:09.678Z,97896.20
2023-03-13T08:51:37.865Z,97897.20
2023-03-13T08:54:06.051Z,97905.60
2023-03-13T08:56:34.974Z,97909.80
2023-03-13T08:59:04.077Z,97907.60
2023-03-13T09:01:33.617Z,97910.80
2023-03-13T09:04:04.272Z,97901.40
2023-03-13T09:06:33.955Z,97903.20
2023-03-13T09:09:02.212Z,97899.40
2023-03-13T09:11:30.339Z,97903.00
2023-03-13T09:14:01.123Z,97902.80
2023-03-13T09:16:30.245Z,97905.80
2023-03-13T09:18:58.425Z,97896.00
2023-03-13T09:21:28.943Z,97897.80
2023-03-13T09:23:57.708Z,97893.60
2023-03-13T09:26:25.854Z,97891.20
2023-03-13T09:28:53.966Z,97892.60
2023-03-13T09:31:30.064Z,97891.20
2023-03-13T09:33:58.519Z,97879.80
2023-03-13T09:36:26.707Z,97881.00
2023-03-13T09:38:56.585Z,97878.40
2023-03-13T09:41:57.334Z,97873.40
2023-03-13T09:44:27.007Z,97865.80
2023-03-13T09:47:04.590Z,97857.20
2023-03-13T09:49:34.976Z,97850.80
2023-03-13T09:52:27.037Z,97849.80
2023-03-13T09:54:59.372Z,97839.00
2023-03-13T09:57:52.553Z,97833.20
2023-03-13T10:00:29.534Z,97831.20
2023-03-13T10:03:17.179Z,97831.80
2023-03-13T10:05:55.611Z,97828.80
2023-03-13T10:08:24.597Z,97827.60
2023-03-13T10:11:09.582Z,97824.20
2023-03-13T10:13:56.012Z,97810.20
2023-03-13T10:16:35.452Z,97804.40
2023-03-13T10:19:11.558Z,97796.60
2023-03-13T10:21:39.720Z,97803.00
2023-03-13T10:24:19.548Z,97787.60
2023-03-13T10:26:47.557Z,97776.20
2023-03-13T10:29:26.515Z,97768.60
2023-03-13T10:32:05.399Z,97757.20
2023-03-13T10:34:55.650Z,97757.80
2023-03-13T10:37:28.915Z,97751.40
2023-03-13T10:40:24.809Z,97752.80
2023-03-13T10:42:54.173Z,97738.20
2023-03-13T10:45:25.078Z,97745.80
2023-03-13T10:47:57.647Z,97730.20
2023-03-13T10:50:32.892Z,97733.00
2023-03-13T10:53:13.246Z,97726.60
2023-03-13T10:55:43.068Z,97724.20
2023-03-13T10:58:17.620Z,97720.40
2023-03-13T11:00:45.994Z,97712.40
2023-03-13T11:03:19.626Z,97698.80
2023-03-13T11:06:00.952Z,97692.80
2023-03-13T11:08:34.865Z,97697.00
2023-03-13T11:11:15.538Z,97687.60
2023-03-13T11:13:43.985Z,97688.00
2023-03-13T11:16:20.289Z,97684.00
2023-03-13T11:19:17.699Z,97679.40
2023-03-13T11:21:58.605Z,97680.80
2023-03-13T11:24:36.397Z,97677.00
2023-03-13T11:27:15.494Z,97678.20
2023-03-13T11:30:04.716Z,97672.60
2023-03-13T11:32:40.583Z,97670.00
2023-03-13T11:35:59.824Z,97670.80
2023-03-13T11:38:32.677Z,97663.60
2023-03-13T11:41:15.733Z,97663.60
2023-03-13T11:43:52.656Z,97664.20
2023-03-13T11:46:39.907Z,97666.40
2023-03-13T11:49:30.256Z,97659.40
2023-03-13T11:52:31.272Z,97663.40
2023-03-13T11:55:14.469Z,97658.60
2023-03-13T11:58:01.270Z,97661.80
2023-03-13T12:00:40.398Z,97666.00
2023-03-13T12:03:27.005Z,97661.60
2023-03-13T12:05:59.467Z,97655.60
2023-03-13T12:08:30.849Z,97656.80
2023-03-13T12:11:02.095Z,97661.60
2023-03-13T12:13:33.022Z,97651.00
2023-03-13T12:16:02.753Z,97653.80
2023-03-13T12:18:38.996Z,97662.80
2023-03-13T12:21:16.560Z,97655.80
2023-03-13T12:23:53.953Z,97655.60
2023-03-13T12:26:23.862Z,97646.40
2023-03-13T12:29:03.552Z,97653.00
2023-03-13T12:31:47.832Z,97645.80
2023-03-13T12:34:28.029Z,97641.60
2023-03-13T12:37:06.878Z,97641.20
2023-03-13T12:39:50.239Z,97644.00
2023-03-13T12:42:49.510Z,97636.20
2023-03-13T12:45:18.792Z,97630.80
2023-03-13T12:48:02.063Z,97639.40
2023-03-13T12:50:32.989Z,97628.80
2023-03-13T12:53:37.243Z,97632.80
2023-03-13T12:56:27.146Z,97636.20
2023-03-13T12:59:06.055Z,97633.20
2023-03-13T13:01:36.297Z,97627.00
2023-03-13T13:04:11.431Z,97620.00
2023-03-13T13:06:55.097Z,97617.20
2023-03-13T13:09:25.397Z,97614.20
2023-03-13T13:11:55.488Z,97615.80
2023-03-13T13:14:23.572Z,97617.20
2023-03-13T13:17:00.556Z,97610.20
2023-03-13T13:19:28.743Z,97604.20
2023-03-13T13:22:36.616Z,97602.20
2023-03-13T13:25:10.776Z,97597.60
2023-03-13T13:27:38.787Z,97600.40
2023-03-13T13:30:19.058Z,97596.00
2023-03-13T13:32:51.048Z,97597.00
2023-03-13T13:35:26.306Z,97592.00
2023-03-13T13:38:18.397Z,97580.80
2023-03-13T13:40:58.748Z,97579.60
2023-03-13T13:43:27.096Z,97577.20
2023-03-13T13:46:02.731Z,97581.60
2023-03-13T13:48:34.092Z,97578.00
2023-03-13T13:51:11.460Z,97576.80
2023-03-13T13:53:46.897Z,97575.20
2023-03-13T13:56:33.032Z,97570.60
2023-03-13T13:59:24.906Z,97567.60
2023-03-13T14:02:14.539Z,97567.40
2023-03-13T14:04:55.821Z,97563.80
2023-03-13T14:07:47.959Z,97564.80
2023-03-13T14:10:38.008Z,97558.60
2023-03-13T14:13:19.584Z,97559.80
2023-03-13T14:15:53.420Z,97552.00
2023-03-13T14:18:25.936Z,97548.60
2023-03-13T14:21:00.519Z,97553.60
2023-03-13T14:23:42.090Z,97553.60
2023-03-13T14:26:14.745Z,97548.60
2023-03-13T14:28:43.894Z,97550.80
2023-03-13T14:31:20.919Z,97545.40
2023-03-13T14:33:49.113Z,97544.20
2023-03-13T14:36:17.429Z,97536.80
2023-03-13T14:38:58.919Z,97533.80
2023-03-13T14:41:41.067Z,97525.80
2023-03-13T14:44:35.440Z,97515.60
2023-03-13T14:47:08.378Z,97511.00
2023-03-13T14:49:36.421Z,97516.00
2023-03-13T14:52:04.401Z,97510.00
2023-03-13T14:54:34.419Z,97505.60
2023-03-13T14:57:23.311Z,97495.20
2023-03-13T14:59:52.011Z,97497.00
2023-03-13T15:02:24.290Z,97489.20
2023-03-13T15:05:00.248Z,97493.80
2023-03-13T15:07:42.494Z,97502.80
2023-03-13T15:10:23.616Z,97502.80
2023-03-13T15:12:51.897Z,97516.80
2023-03-13T15:15:20.021Z,97515.00
2023-03-13T15:17:48.117Z,97518.60
2023-03-13T15:20:16.393Z,97517.00
2023-03-13T15:22:45.200Z,97517.00
2023-03-13T15:25:18.175Z,97511.00
2023-03-13T15:27:46.519Z,97510.40
2023-03-13T15:30:23.614Z,97519.00
2023-03-13T15:32:52.048Z,97524.40
2023-03-13T15:35:32.633Z,97525.40
2023-03-13T15:38:01.431Z,97526.20
2023-03-13T15:40:31.053Z,97530.60
2023-03-13T15:42:59.563Z,97527.20
2023-03-13T15:45:27.661Z,97527.20
2023-03-13T15:47:55.763Z,97528.00
2023-03-13T15:50:29.718Z,97517.00
2023-03-13T15:52:58.742Z,97511.60
2023-03-13T15:55:26.919Z,97509.00
2023-03-13T15:57:55.067Z,97509.20
2023-03-13T16:00:26.609Z,97501.20
2023-03-13T16:02:54.712Z,97511.40
2023-03-13T16:05:22.778Z,97508.60
2023-03-13T16:07:51.022Z,97518.80
2023-03-13T16:10:26.467Z,97520.20
2023-03-13T16:12:54.744Z,97517.40
2023-03-13T16:15:22.916Z,97519.40
2023-03-13T16:17:51.012Z,97521.40
2023-03-13T16:20:21.249Z,97525.20
2023-03-13T16:22:50.630Z,97526.20
2023-03-13T16:25:19.813Z,97526.60
2023-03-13T16:27:47.987Z,97532.20
2023-03-13T16:30:18.511Z,97532.20
2023-03-13T16:32:46.680Z,97534.60
2023-03-13T16:35:14.944Z,97536.80
2023-03-13T16:37:43.199Z,97543.80
2023-03-13T16:40:16.788Z,97536.80
2023-03-13T16:42:44.836Z,97543.20
2023-03-13T16:45:14.475Z,97536.40
2023-03-13T16:47:42.962Z,97532.00
2023-03-13T16:50:27.126Z,97528.60
2023-03-13T16:52:55.333Z,97530.60
2023-03-13T16:55:28.258Z,97536.20
2023-03-13T16:58:00.146Z,97534.40
2023-03-13T17:00:29.485Z,97530.60
2023-03-13T17:02:58.228Z,97530.20
2023-03-13T17:05:27.074Z,97535.20
2023-03-13T17:07:55.160Z,97535.00
2023-03-13T17:10:25.046Z,97541.20
2023-03-13T17:12:53.082Z,97539.80
2023-03-13T17:15:21.288Z,97546.60
2023-03-13T17:17:52.681Z,97554.60
2023-03-13T17:20:29.147Z,97551.00
2023-03-13T17:22:57.216Z,97548.60
2023-03-13T17:25:25.336Z,97542.00
2023-03-13T17:27:53.640Z,97544.80
2023-03-13T17:30:30.165Z,97545.60
2023-03-13T17:32:59.158Z,97545.20
2023-03-13T17:35:27.292Z,97535.20
2023-03-13T17:37:55.309Z,97539.00
2023-03-13T17:40:28.113Z,97533.20
2023-03-13T17:42:57.332Z,97530.60
2023-03-13T17:45:25.556Z,97527.40
2023-03-13T17:47:54.406Z,97531.60
2023-03-13T17:50:24.536Z,97534.00
2023-03-13T17:52:52.767Z,97527.20
2023-03-13T17:55:21.035Z,97519.40
2023-03-13T17:57:49.567Z,97520.40
2023-03-13T18:00:23.527Z,97525.80
2023-03-13T18:02:51.779Z,97529.20
2023-03-13T18:05:20.106Z,97522.40
2023-03-13T18:07:48.335Z,97521.00
2023-03-13T18:10:17.421Z,97526.40
2023-03-13T18:12:45.527Z,97522.60
2023-03-13T18:15:13.529Z,97514.20
2023-03-13T18:17:41.528Z,97511.00
2023-03-13T18:20:35.758Z,97522.60
2023-03-13T18:23:03.830Z,97506.80
2023-03-13T18:25:32.079Z,97514.40
2023-03-13T18:28:00.184Z,97513.00
2023-03-13T18:30:28.412Z,97510.00
2023-03-13T18:32:56.476Z,97505.00
2023-03-13T18:35:24.531Z,97503.20
2023-03-13T18:37:52.746Z,97498.80
2023-03-13T18:40:25.735Z,97507.40
2023-03-13T18:42:54.922Z,97508.00
2023-03-13T18:45:24.200Z,97511.60
2023-03-13T18:47:52.768Z,97506.20
2023-03-13T18:50:25.093Z,97492.40
2023-03-13T18:52:56.993Z,97510.40
2023-03-13T18:55:26.103Z,97512.00
2023-03-13T18:57:55.052Z,97513.20
2023-03-13T19:00:27.890Z,97521.40
2023-03-13T19:02:55.960Z,97518.40
2023-03-13T19:05:24.238Z,97517.60
2023-03-13T19:07:52.615Z,97517.20
2023-03-13T19:10:28.663Z,97511.60
2023-03-13T19:12:56.924Z,97517.60
2023-03-13T19:15:27.513Z,97517.80
2023-03-13T19:17:56.340Z,97520.40
2023-03-13T19:20:24.554Z,97522.80
2023-03-13T19:22:54.437Z,97515.60
2023-03-13T19:25:23.312Z,97517.80
2023-03-13T19:27:51.439Z,97519.00
2023-03-13T19:30:21.130Z,97511.20
2023-03-13T19:32:49.466Z,97515.60
2023-03-13T19:35:19.143Z,97501.20
2023-03-13T19:37:47.549Z,97509.80
2023-03-13T19:40:18.834Z,97509.60
2023-03-13T19:42:46.855Z,97510.80
2023-03-13T19:45:17.494Z,97511.60
2023-03-13T19:47:45.652Z,97520.40
2023-03-13T19:50:21.341Z,97512.40
2023-03-13T19:52:49.408Z,97509.20
2023-03-13T19:55:17.612Z,97511.20
2023-03-13T19:57:45.765Z,97512.40
2023-03-13T20:00:31.723Z,97520.20
2023-03-13T20:02:59.746Z,97512.60
2023-03-13T20:05:27.831Z,97520.20
2023-03-13T20:07:55.915Z,97517.20
2023-03-13T20:10:24.482Z,97517.20
2023-03-13T20:12:53.669Z,97515.20
2023-03-13T20:15:21.808Z,97516.00
2023-03-13T20:17:49.971Z,97520.80
2023-03-13T20:20:18.380Z,97510.20
2023-03-13T20:22:46.613Z,97513.60
2023-03-13T20:25:27.763Z,97512.00
2023-03-13T20:28:01.524Z,97516.00
2023-03-13T20:30:29.629Z,97510.20
2023-03-13T20:32:59.855Z,97500.20
2023-03-13T20:35:28.423Z,97496.80
2023-03-13T20:37:58.621Z,97492.00
2023-03-13T20:40:26.816Z,97488.00
2023-03-13T20:42:54.967Z,97498.20
2023-03-13T20:45:23.014Z,97496.80
2023-03-13T20:47:51.086Z,97497.60
2023-03-13T20:50:19.791Z,97496.60
2023-03-13T20:52:48.796Z,97490.80
2023-03-13T20:55:17.311Z,97488.40
2023-03-13T20:57:45.360Z,97483.80
2023-03-13T21:00:13.891Z,97490.20
2023-03-13T21:02:41.920Z,97489.20
2023-03-13T21:05:10.097Z,97483.00
2023-03-13T21:07:38.146Z,97480.00
2023-03-13T21:10:06.820Z,97485.40
2023-03-13T21:12:36.352Z,97483.60
2023-03-13T21:15:06.178Z,97482.40
2023-03-13T21:17:34.621Z,97480.00
2023-03-13T21:20:08.410Z,97469.60
2023-03-13T21:22:36.430Z,97472.60
2023-03-13T21:25:05.117Z,97458.20
2023-03-13T21:27:33.474Z,97456.00
2023-03-13T21:30:02.276Z,97456.00
2023-03-13T21:32:30.458Z,97448.40
2023-03-13T21:34:58.634Z,97447.00
2023-03-13T21:37:26.737Z,97442.20
2023-03-13T21:39:54.816Z,97443.60
2023-03-13T21:42:22.962Z,97437.00
2023-03-13T21:44:50.993Z,97431.60
2023-03-13T21:47:24.334Z,97426.40
2023-03-13T21:49:53.470Z,97422.00
2023-03-13T21:52:21.807Z,97412.40
2023-03-13T21:54:49.824Z,97404.60
2023-03-13T21:57:17.738Z,97402.60
2023-03-13T21:59:45.699Z,97399.60
2023-03-13T22:02:14.009Z,97390.60
2023-03-13T22:04:44.500Z,97382.00
2023-03-13T22:07:12.528Z,97381.40
2023-03-13T22:09:40.573Z,97375.20
2023-03-13T22:12:08.527Z,97381.80
2023-03-13T22:14:36.616Z,97377.60
2023-03-13T22:17:04.663Z,97381.60
2023-03-13T22:19:36.149Z,97375.80
2023-03-13T22:22:04.393Z,97376.80
2023-03-13T22:24:32.392Z,97362.40
2023-03-13T22:27:00.339Z,97361.00
2023-03-13T22:29:31.947Z,97360.20
2023-03-13T22:32:04.797Z,97359.60
2023-03-13T22:34:32.935Z,97359.20
2023-03-13T22:37:26.853Z,97365.20
2023-03-13T22:39:56.268Z,97347.20
2023-03-13T22:42:27.143Z,97349.20
2023-03-13T22:44:55.742Z,97350.40
2023-03-13T22:47:25.940Z,97354.60
2023-03-13T22:49:54.130Z,97352.40
2023-03-13T22:52:28.868Z,97349.80
2023-03-13T22:54:58.021Z,97343.20
2023-03-13T22:57:26.076Z,97340.20
2023-03-13T22:59:54.106Z,97337.80
2023-03-13T23:02:22.486Z,97339.00
2023-03-13T23:04:50.878Z,97330.00
2023-03-13T23:07:18.929Z,97329.20
2023-03-13T23:09:46.892Z,97329.00
2023-03-13T23:12:14.863Z,97317.00
2023-03-13T23:14:42.973Z,97315.20
2023-03-13T23:17:11.119Z,97309.60
2023-03-13T23:19:39.140Z,97310.80
2023-03-13T23:22:07.108Z,97304.00
2023-03-13T23:24:35.137Z,97304.00
2023-03-13T23:27:03.169Z,97301.80
2023-03-13T23:29:31.110Z,97301.20
2023-03-13T23:31:59.068Z,97300.00
2023-03-13T23:34:27.094Z,97292.00
2023-03-13T23:36:55.126Z,97293.80
2023-03-13T23:39:23.065Z,97296.20
2023-03-13T23:41:51.049Z,97303.40
2023-03-13T23:44:19.101Z,97298.40
2023-03-13T23:46:47.088Z,97305.20
2023-03-13T23:49:15.317Z,97298.80
2023-03-13T23:51:43.394Z,97295.00
2023-03-13T23:54:11.547Z,97290.60
2023-03-13T23:56:39.542Z,97295.00
2023-03-13T23:59:07.523Z,97291.40
